DW9672 Weather Reports


Display with metric or nautical units.
time (UTC)temp
F
wind
direction
speed
MPH
gust
MPH
rain 1hr
in
rain 24hr
in
rain mn
in
humidity
%
barometer
mb
20220701051542 68 215 0.0 0.0 0.00 0.00 0.00 85 1013.1
20220701050022 68 215 0.0 0.0 0.00 0.00 0.00 84 1013.1
20220701044521 69 215 0.0 0.0 0.00 0.00 0.00 84 1013.1
20220701043004 69 215 0.0 0.0 0.00 0.00 0.00 83 1013.1
20220701041503 70 215 0.0 0.0 0.00 0.00 0.00 83 1012.9
20220701040046 70 215 0.0 0.0 0.00 0.00 0.00 81 1013.1
20220701034545 70 215 0.0 0.0 0.00 0.00 0.00 81 1013.0
20220701033027 71 215 0.0 0.0 0.00 0.00 0.00 81 1013.1
20220701031526 71 215 0.0 1.0 0.00 0.00 0.00 80 1013.1
20220701030010 72 215 0.0 0.0 0.00 0.00 0.00 79 1012.9
20220701024515 72 215 0.0 0.0 0.00 0.00 0.00 78 1012.9
20220701023057 73 215 0.0 0.0 0.00 0.00 0.00 77 1012.7
20220701021550 74 215 0.0 0.0 0.00 0.00 0.00 74 1012.6
20220701020033 75 215 0.0 0.0 0.00 0.00 0.00 71 1012.5
20220701014532 76 215 0.0 0.0 0.00 0.00 0.00 68 1012.5
20220701013014 78 215 0.0 0.0 0.00 0.00 0.00 65 1012.4
20220701011521 80 215 0.0 2.0 0.00 0.00 0.00 59 1012.5
20220701010056 81 217 1.0 4.0 0.00 0.00 0.00 56 1012.4
20220701004601 82 200 0.0 5.0 0.00 0.00 0.00 54 1012.5
20220701003037 83 237 1.0 5.0 0.00 0.00 0.00 52 1012.6
20220701001537 84 199 1.0 7.0 0.00 0.00 0.00 50 1012.6
20220701000019 85 216 3.0 7.0 0.00 0.00 0.00 50 1012.6
20220630234519 85 217 2.0 6.0 0.00 0.00 0.00 51 1012.4
20220630233003 86 237 4.0 10.0 0.00 0.00 0.00 51 1012.4
20220630231600 86 211 2.0 7.0 0.00 0.00 0.00 54 1012.4
20220630230042 86 261 4.0 11.0 0.00 0.00 0.00 53 1012.6
20220630224539 85 247 1.0 8.0 0.00 0.00 0.00 56 1012.6
20220630223021 85 199 1.0 6.0 0.00 0.00 0.00 55 1012.8
20220630221526 86 217 4.0 9.0 0.00 0.00 0.00 53 1013.0
20220630220002 86 257 2.0 8.0 0.00 0.00 0.00 54 1013.0
20220630214501 86 234 1.0 7.0 0.00 0.00 0.00 54 1013.0
20220630213042 86 210 4.0 10.0 0.00 0.00 0.00 53 1013.2
20220630211540 86 229 3.0 8.0 0.00 0.00 0.00 53 1013.2
20220630210022 87 220 1.0 9.0 0.00 0.00 0.00 51 1013.3
20220630204521 88 240 3.0 10.0 0.00 0.00 0.00 51 1013.4
20220630203001 87 148 2.0 8.0 0.00 0.00 0.00 49 1013.5
20220630201559 87 264 3.0 12.0 0.00 0.00 0.00 49 1013.6
20220630200103 87 211 2.0 9.0 0.00 0.00 0.00 51 1013.7
20220630194540 87 195 4.0 12.0 0.00 0.00 0.00 51 1013.8
20220630193039 87 132 4.0 9.0 0.00 0.00 0.00 51 1013.7
20220630191531 86 209 4.0 12.0 0.00 0.00 0.00 52 1014.1
20220630190017 86 165 2.0 8.0 0.00 0.00 0.00 53 1014.3
20220630184557 86 234 3.0 15.0 0.00 0.00 0.00 52 1014.5
20220630183058 86 150 2.0 9.0 0.00 0.00 0.00 53 1014.5
20220630181537 85 199 2.0 11.0 0.00 0.00 0.00 53 1014.6
20220630180034 85 227 2.0 11.0 0.00 0.00 0.00 55 1014.9
20220630174514 85 277 3.0 9.0 0.00 0.00 0.00 54 1015.1
20220630173015 85 238 3.0 9.0 0.00 0.00 0.00 55 1015.2
20220630171603 84 205 5.0 10.0 0.00 0.00 0.00 56 1015.4
20220630170051 84 205 4.0 11.0 0.00 0.00 0.00 54 1015.6
20220630164539 84 239 3.0 13.0 0.00 0.00 0.00 56 1015.7
20220630163028 83 243 2.0 12.0 0.00 0.00 0.00 58 1016.1
20220630161507 83 261 2.0 12.0 0.00 0.00 0.00 57 1016.2
20220630160005 83 136 2.0 9.0 0.00 0.00 0.00 58 1016.3
20220630154550 82 287 2.0 10.0 0.00 0.00 0.00 59 1016.4
20220630153043 82 211 4.0 13.0 0.00 0.00 0.00 58 1016.4
20220630151524 81 169 4.0 14.0 0.00 0.00 0.00 58 1016.6
20220630150023 81 153 3.0 11.0 0.00 0.00 0.00 59 1016.7
20220630144507 81 215 4.0 9.0 0.00 0.00 0.00 58 1016.9
20220630143058 80 180 2.0 7.0 0.00 0.00 0.00 61 1017.2
20220630141545 79 248 3.0 9.0 0.00 0.00 0.00 62 1017.4
20220630140044 79 131 1.0 8.0 0.00 0.00 0.00 64 1017.4
20220630134537 78 109 1.0 8.0 0.00 0.00 0.00 66 1017.5
20220630133036 77 224 3.0 8.0 0.00 0.00 0.00 68 1017.5
20220630131536 76 228 2.0 6.0 0.00 0.00 0.00 69 1017.5
20220630130027 75 259 2.0 7.0 0.00 0.00 0.00 72 1017.5
20220630124523 74 230 0.0 4.0 0.00 0.00 0.00 75 1017.4
20220630123025 72 225 0.0 3.0 0.00 0.00 0.00 79 1017.5
20220630121504 71 212 1.0 5.0 0.00 0.00 0.00 78 1017.4
20220630120008 70 215 0.0 2.0 0.00 0.00 0.00 81 1017.5
20220630114546 68 215 0.0 2.0 0.00 0.00 0.00 85 1017.7
20220630113046 66 216 0.0 3.0 0.00 0.00 0.00 88 1018.1
20220630111529 66 216 0.0 3.0 0.00 0.00 0.00 88 1018.2
20220630110023 66 216 0.0 3.0 0.00 0.00 0.00 88 1018.2
20220630104508 66 216 0.0 3.0 0.00 0.01 0.00 88 1018.4
20220630103006 66 216 0.0 2.0 0.00 0.01 0.00 87 1018.1
20220630101545 66 216 0.0 1.0 0.00 0.01 0.00 88 1018.4
20220630100045 66 216 0.0 2.0 0.00 0.01 0.00 88 1018.3
20220630094526 66 216 0.0 2.0 0.00 0.09 0.00 90 1018.2
20220630093031 66 216 0.0 2.0 0.00 0.09 0.00 90 1018.3
20220630091507 66 217 0.0 2.0 0.00 0.09 0.00 90 1018.2
20220630090008 66 217 0.0 1.0 0.00 0.09 0.00 89 1018.4
20220630084549 67 217 0.0 0.0 0.00 0.09 0.00 88 1018.6
20220630083056 68 217 0.0 0.0 0.00 0.09 0.00 87 1018.5
20220630081525 68 217 0.0 0.0 0.00 0.09 0.00 86 1018.6
20220630080020 69 217 0.0 1.0 0.00 0.09 0.00 85 1018.6
20220630074600 69 217 0.0 3.0 0.00 0.09 0.00 84 1018.8
20220630073057 70 217 0.0 2.0 0.00 0.09 0.00 83 1018.9
20220630071547 70 217 0.0 3.0 0.00 0.09 0.00 82 1019.0
20220630070040 71 219 0.0 4.0 0.00 0.09 0.00 82 1018.9
20220630064541 71 223 0.0 5.0 0.00 0.09 0.00 81 1018.9
20220630063036 72 204 0.0 3.0 0.00 0.09 0.00 80 1019.0
20220630061534 72 201 0.0 3.0 0.00 0.09 0.00 79 1019.0
20220630060032 72 196 1.0 4.0 0.00 0.09 0.00 79 1019.0
20220630054530 73 190 1.0 4.0 0.00 0.09 0.00 79 1018.8
20220630053029 73 184 0.0 4.0 0.00 0.09 0.00 78 1018.9